sensor_id;sensor_type;location;lat;lon;timestamp;temperature;humidity
16412;DHT22;8315;52.104;6.304;2022-10-16T00:04:34;13.20;98.40
16412;DHT22;8315;52.104;6.304;2022-10-16T00:07:53;13.20;98.40
16412;DHT22;8315;52.104;6.304;2022-10-16T00:10:42;13.10;98.40
16412;DHT22;8315;52.104;6.304;2022-10-16T00:13:09;13.10;98.40
16412;DHT22;8315;52.104;6.304;2022-10-16T00:15:36;13.00;98.40
16412;DHT22;8315;52.104;6.304;2022-10-16T00:18:04;13.00;98.40
16412;DHT22;8315;52.104;6.304;2022-10-16T00:20:33;13.00;98.40
16412;DHT22;8315;52.104;6.304;2022-10-16T00:23:02;13.00;98.40
16412;DHT22;8315;52.104;6.304;2022-10-16T00:25:29;13.00;98.40
16412;DHT22;8315;52.104;6.304;2022-10-16T00:27:59;13.00;98.40
16412;DHT22;8315;52.104;6.304;2022-10-16T00:30:26;13.00;98.40
16412;DHT22;8315;52.104;6.304;2022-10-16T00:32:54;13.00;98.40
16412;DHT22;8315;52.104;6.304;2022-10-16T00:35:21;13.00;98.40
16412;DHT22;8315;52.104;6.304;2022-10-16T00:37:48;12.90;98.40
16412;DHT22;8315;52.104;6.304;2022-10-16T00:40:15;13.00;98.40
16412;DHT22;8315;52.104;6.304;2022-10-16T00:42:42;13.00;98.40
16412;DHT22;8315;52.104;6.304;2022-10-16T00:45:10;12.90;98.40
16412;DHT22;8315;52.104;6.304;2022-10-16T00:47:38;12.90;98.40
16412;DHT22;8315;52.104;6.304;2022-10-16T00:50:08;12.90;98.40
16412;DHT22;8315;52.104;6.304;2022-10-16T00:52:38;12.80;98.40
16412;DHT22;8315;52.104;6.304;2022-10-16T00:55:06;12.80;98.40
16412;DHT22;8315;52.104;6.304;2022-10-16T00:57:33;12.90;98.40
16412;DHT22;8315;52.104;6.304;2022-10-16T01:00:00;12.90;98.40
16412;DHT22;8315;52.104;6.304;2022-10-16T01:02:30;12.90;98.40
16412;DHT22;8315;52.104;6.304;2022-10-16T01:04:57;12.90;98.40
16412;DHT22;8315;52.104;6.304;2022-10-16T01:07:27;12.90;98.40
16412;DHT22;8315;52.104;6.304;2022-10-16T01:10:02;12.90;98.40
16412;DHT22;8315;52.104;6.304;2022-10-16T01:12:37;12.90;98.40
16412;DHT22;8315;52.104;6.304;2022-10-16T01:15:09;12.80;98.40
16412;DHT22;8315;52.104;6.304;2022-10-16T01:17:41;12.90;98.40
16412;DHT22;8315;52.104;6.304;2022-10-16T01:20:11;12.90;98.40
16412;DHT22;8315;52.104;6.304;2022-10-16T01:22:48;12.90;98.40
16412;DHT22;8315;52.104;6.304;2022-10-16T01:25:22;13.00;98.40
16412;DHT22;8315;52.104;6.304;2022-10-16T01:27:53;13.00;98.40
16412;DHT22;8315;52.104;6.304;2022-10-16T01:30:21;13.00;98.40
16412;DHT22;8315;52.104;6.304;2022-10-16T01:32:50;12.90;98.40
16412;DHT22;8315;52.104;6.304;2022-10-16T01:35:21;12.90;98.40
16412;DHT22;8315;52.104;6.304;2022-10-16T01:37:51;12.90;98.40
16412;DHT22;8315;52.104;6.304;2022-10-16T01:40:21;12.90;98.40
16412;DHT22;8315;52.104;6.304;2022-10-16T01:42:52;12.80;98.40
16412;DHT22;8315;52.104;6.304;2022-10-16T01:45:21;12.80;98.40
16412;DHT22;8315;52.104;6.304;2022-10-16T01:47:49;12.90;98.40
16412;DHT22;8315;52.104;6.304;2022-10-16T01:50:16;12.90;98.40
16412;DHT22;8315;52.104;6.304;2022-10-16T01:52:45;12.80;98.40
16412;DHT22;8315;52.104;6.304;2022-10-16T01:55:16;12.90;98.40
16412;DHT22;8315;52.104;6.304;2022-10-16T01:57:46;12.90;98.40
16412;DHT22;8315;52.104;6.304;2022-10-16T02:00:16;12.90;98.40
16412;DHT22;8315;52.104;6.304;2022-10-16T02:02:45;12.90;98.40
16412;DHT22;8315;52.104;6.304;2022-10-16T02:05:16;12.90;98.40
16412;DHT22;8315;52.104;6.304;2022-10-16T02:07:47;12.90;98.40
16412;DHT22;8315;52.104;6.304;2022-10-16T02:10:13;13.00;98.40
16412;DHT22;8315;52.104;6.304;2022-10-16T02:12:41;12.90;98.40
16412;DHT22;8315;52.104;6.304;2022-10-16T02:15:11;12.90;98.40
16412;DHT22;8315;52.104;6.304;2022-10-16T02:17:39;12.90;98.40
16412;DHT22;8315;52.104;6.304;2022-10-16T02:20:06;12.90;98.40
16412;DHT22;8315;52.104;6.304;2022-10-16T02:22:34;12.90;98.40
16412;DHT22;8315;52.104;6.304;2022-10-16T02:25:04;12.90;98.40
16412;DHT22;8315;52.104;6.304;2022-10-16T02:27:33;12.90;98.40
16412;DHT22;8315;52.104;6.304;2022-10-16T02:30:04;12.90;98.40
16412;DHT22;8315;52.104;6.304;2022-10-16T02:32:34;13.00;98.40
16412;DHT22;8315;52.104;6.304;2022-10-16T02:35:05;13.10;98.40
16412;DHT22;8315;52.104;6.304;2022-10-16T02:37:33;13.10;98.40
16412;DHT22;8315;52.104;6.304;2022-10-16T02:40:00;13.10;98.40
16412;DHT22;8315;52.104;6.304;2022-10-16T02:42:28;13.10;98.40
16412;DHT22;8315;52.104;6.304;2022-10-16T02:44:56;13.10;98.40
16412;DHT22;8315;52.104;6.304;2022-10-16T02:47:22;13.10;98.40
16412;DHT22;8315;52.104;6.304;2022-10-16T02:49:49;13.10;98.40
16412;DHT22;8315;52.104;6.304;2022-10-16T02:52:17;13.10;98.40
16412;DHT22;8315;52.104;6.304;2022-10-16T02:54:44;13.10;98.40
16412;DHT22;8315;52.104;6.304;2022-10-16T02:57:11;13.20;98.40
16412;DHT22;8315;52.104;6.304;2022-10-16T02:59:38;13.20;98.40
16412;DHT22;8315;52.104;6.304;2022-10-16T03:02:05;13.20;98.40
16412;DHT22;8315;52.104;6.304;2022-10-16T03:04:32;13.30;98.40
16412;DHT22;8315;52.104;6.304;2022-10-16T03:06:59;13.30;98.40
16412;DHT22;8315;52.104;6.304;2022-10-16T03:09:27;13.30;98.40
16412;DHT22;8315;52.104;6.304;2022-10-16T03:11:54;13.30;98.40
16412;DHT22;8315;52.104;6.304;2022-10-16T03:14:21;13.30;98.40
16412;DHT22;8315;52.104;6.304;2022-10-16T03:16:47;13.30;98.40
16412;DHT22;8315;52.104;6.304;2022-10-16T03:19:15;13.30;98.40
16412;DHT22;8315;52.104;6.304;2022-10-16T03:21:42;13.30;98.40
16412;DHT22;8315;52.104;6.304;2022-10-16T03:24:09;13.30;98.40
16412;DHT22;8315;52.104;6.304;2022-10-16T03:26:38;13.30;98.40
16412;DHT22;8315;52.104;6.304;2022-10-16T03:29:05;13.30;98.40
16412;DHT22;8315;52.104;6.304;2022-10-16T03:31:32;13.40;98.40
16412;DHT22;8315;52.104;6.304;2022-10-16T03:33:59;13.30;98.40
16412;DHT22;8315;52.104;6.304;2022-10-16T03:36:26;13.30;98.40
16412;DHT22;8315;52.104;6.304;2022-10-16T03:38:52;13.30;98.40
16412;DHT22;8315;52.104;6.304;2022-10-16T03:41:19;13.30;98.40
16412;DHT22;8315;52.104;6.304;2022-10-16T03:43:47;13.30;98.40
16412;DHT22;8315;52.104;6.304;2022-10-16T03:46:14;13.20;98.40
16412;DHT22;8315;52.104;6.304;2022-10-16T03:48:41;13.20;98.40
16412;DHT22;8315;52.104;6.304;2022-10-16T03:51:08;13.20;98.40
16412;DHT22;8315;52.104;6.304;2022-10-16T03:53:35;13.20;98.40
16412;DHT22;8315;52.104;6.304;2022-10-16T03:56:01;13.20;98.40
16412;DHT22;8315;52.104;6.304;2022-10-16T03:58:28;13.20;98.40
16412;DHT22;8315;52.104;6.304;2022-10-16T04:00:56;13.20;98.40
16412;DHT22;8315;52.104;6.304;2022-10-16T04:03:23;13.20;98.40
16412;DHT22;8315;52.104;6.304;2022-10-16T04:05:50;13.20;98.40
16412;DHT22;8315;52.104;6.304;2022-10-16T04:08:17;13.20;98.40
16412;DHT22;8315;52.104;6.304;2022-10-16T04:10:44;13.20;98.40
16412;DHT22;8315;52.104;6.304;2022-10-16T04:13:11;13.20;98.40
16412;DHT22;8315;52.104;6.304;2022-10-16T04:15:38;13.30;98.40
16412;DHT22;8315;52.104;6.304;2022-10-16T04:18:07;13.20;98.40
16412;DHT22;8315;52.104;6.304;2022-10-16T04:20:33;13.10;98.40
16412;DHT22;8315;52.104;6.304;2022-10-16T04:23:00;13.10;98.40
16412;DHT22;8315;52.104;6.304;2022-10-16T04:25:27;13.10;98.40
16412;DHT22;8315;52.104;6.304;2022-10-16T04:27:54;13.10;98.40
16412;DHT22;8315;52.104;6.304;2022-10-16T04:30:21;13.10;98.40
16412;DHT22;8315;52.104;6.304;2022-10-16T04:32:48;13.10;98.40
16412;DHT22;8315;52.104;6.304;2022-10-16T04:35:17;13.10;98.40
16412;DHT22;8315;52.104;6.304;2022-10-16T04:37:44;13.10;98.40
16412;DHT22;8315;52.104;6.304;2022-10-16T04:40:11;13.10;98.40
16412;DHT22;8315;52.104;6.304;2022-10-16T04:42:38;13.10;98.40
16412;DHT22;8315;52.104;6.304;2022-10-16T04:45:05;13.00;98.40
16412;DHT22;8315;52.104;6.304;2022-10-16T04:47:33;13.00;98.40
16412;DHT22;8315;52.104;6.304;2022-10-16T04:50:00;13.00;98.40
16412;DHT22;8315;52.104;6.304;2022-10-16T04:52:29;13.10;98.40
16412;DHT22;8315;52.104;6.304;2022-10-16T04:54:56;13.10;98.40
16412;DHT22;8315;52.104;6.304;2022-10-16T04:57:26;13.10;98.40
16412;DHT22;8315;52.104;6.304;2022-10-16T04:59:53;13.10;98.40
16412;DHT22;8315;52.104;6.304;2022-10-16T05:02:20;13.10;98.40
16412;DHT22;8315;52.104;6.304;2022-10-16T05:04:47;13.10;98.40
16412;DHT22;8315;52.104;6.304;2022-10-16T05:07:14;13.10;98.40
16412;DHT22;8315;52.104;6.304;2022-10-16T05:09:42;13.10;98.40
16412;DHT22;8315;52.104;6.304;2022-10-16T05:12:09;13.10;98.40
16412;DHT22;8315;52.104;6.304;2022-10-16T05:14:36;13.10;98.40
16412;DHT22;8315;52.104;6.304;2022-10-16T05:17:03;13.10;98.40
16412;DHT22;8315;52.104;6.304;2022-10-16T05:19:30;13.10;98.40
16412;DHT22;8315;52.104;6.304;2022-10-16T05:21:56;13.10;98.40
16412;DHT22;8315;52.104;6.304;2022-10-16T05:24:23;13.10;98.40
16412;DHT22;8315;52.104;6.304;2022-10-16T05:26:51;13.10;98.40
16412;DHT22;8315;52.104;6.304;2022-10-16T05:29:18;13.10;98.40
16412;DHT22;8315;52.104;6.304;2022-10-16T05:31:45;13.10;98.40
16412;DHT22;8315;52.104;6.304;2022-10-16T05:34:12;13.00;98.40
16412;DHT22;8315;52.104;6.304;2022-10-16T05:36:39;13.00;98.40
16412;DHT22;8315;52.104;6.304;2022-10-16T05:39:06;13.00;98.40
16412;DHT22;8315;52.104;6.304;2022-10-16T05:41:32;13.00;98.40
16412;DHT22;8315;52.104;6.304;2022-10-16T05:44:00;12.90;98.40
16412;DHT22;8315;52.104;6.304;2022-10-16T05:46:30;13.00;98.40
16412;DHT22;8315;52.104;6.304;2022-10-16T05:48:57;13.00;98.40
16412;DHT22;8315;52.104;6.304;2022-10-16T05:51:24;12.90;98.40
16412;DHT22;8315;52.104;6.304;2022-10-16T05:53:51;12.90;98.40
16412;DHT22;8315;52.104;6.304;2022-10-16T05:56:18;12.90;98.40
16412;DHT22;8315;52.104;6.304;2022-10-16T05:58:45;12.90;98.40
16412;DHT22;8315;52.104;6.304;2022-10-16T06:01:14;12.90;98.40
16412;DHT22;8315;52.104;6.304;2022-10-16T06:03:42;12.90;98.40
16412;DHT22;8315;52.104;6.304;2022-10-16T06:06:09;12.90;98.40
16412;DHT22;8315;52.104;6.304;2022-10-16T06:08:37;12.90;98.40
16412;DHT22;8315;52.104;6.304;2022-10-16T06:11:04;12.90;98.40
16412;DHT22;8315;52.104;6.304;2022-10-16T06:13:32;12.80;98.40
16412;DHT22;8315;52.104;6.304;2022-10-16T06:15:59;12.80;98.40
16412;DHT22;8315;52.104;6.304;2022-10-16T06:18:28;12.90;98.40
16412;DHT22;8315;52.104;6.304;2022-10-16T06:20:55;12.80;98.40
16412;DHT22;8315;52.104;6.304;2022-10-16T06:23:22;12.80;98.40
16412;DHT22;8315;52.104;6.304;2022-10-16T06:25:49;12.70;98.40
16412;DHT22;8315;52.104;6.304;2022-10-16T06:28:15;12.70;98.40
16412;DHT22;8315;52.104;6.304;2022-10-16T06:30:42;12.70;98.40
16412;DHT22;8315;52.104;6.304;2022-10-16T06:33:09;12.70;98.40
16412;DHT22;8315;52.104;6.304;2022-10-16T06:35:37;12.70;98.40
16412;DHT22;8315;52.104;6.304;2022-10-16T06:38:04;12.70;98.40
16412;DHT22;8315;52.104;6.304;2022-10-16T06:40:31;12.70;98.40
16412;DHT22;8315;52.104;6.304;2022-10-16T06:42:58;12.70;98.40
16412;DHT22;8315;52.104;6.304;2022-10-16T06:45:25;12.70;98.40
16412;DHT22;8315;52.104;6.304;2022-10-16T06:47:52;12.70;98.40
16412;DHT22;8315;52.104;6.304;2022-10-16T06:50:18;12.80;98.40
16412;DHT22;8315;52.104;6.304;2022-10-16T06:52:46;12.80;98.40
16412;DHT22;8315;52.104;6.304;2022-10-16T06:55:13;12.90;98.40
16412;DHT22;8315;52.104;6.304;2022-10-16T06:57:42;13.00;98.40
16412;DHT22;8315;52.104;6.304;2022-10-16T07:00:09;13.00;98.40
16412;DHT22;8315;52.104;6.304;2022-10-16T07:02:36;13.00;98.40
16412;DHT22;8315;52.104;6.304;2022-10-16T07:05:03;13.10;98.40
16412;DHT22;8315;52.104;6.304;2022-10-16T07:07:30;13.10;98.40
16412;DHT22;8315;52.104;6.304;2022-10-16T07:09:59;13.10;98.40
16412;DHT22;8315;52.104;6.304;2022-10-16T07:12:25;13.20;98.40
16412;DHT22;8315;52.104;6.304;2022-10-16T07:14:52;13.20;98.40
16412;DHT22;8315;52.104;6.304;2022-10-16T07:17:20;13.20;98.40
16412;DHT22;8315;52.104;6.304;2022-10-16T07:19:46;13.30;98.40
16412;DHT22;8315;52.104;6.304;2022-10-16T07:22:13;13.30;98.40
16412;DHT22;8315;52.104;6.304;2022-10-16T07:24:40;13.30;98.40
16412;DHT22;8315;52.104;6.304;2022-10-16T07:27:08;13.40;98.40
16412;DHT22;8315;52.104;6.304;2022-10-16T07:29:35;13.40;98.40
16412;DHT22;8315;52.104;6.304;2022-10-16T07:32:02;13.40;98.40
16412;DHT22;8315;52.104;6.304;2022-10-16T07:34:29;13.50;98.40
16412;DHT22;8315;52.104;6.304;2022-10-16T07:36:55;13.60;98.40
16412;DHT22;8315;52.104;6.304;2022-10-16T07:39:22;13.60;98.40
16412;DHT22;8315;52.104;6.304;2022-10-16T07:41:49;13.70;98.40
16412;DHT22;8315;52.104;6.304;2022-10-16T07:44:17;13.60;98.40
16412;DHT22;8315;52.104;6.304;2022-10-16T07:46:45;13.70;98.40
16412;DHT22;8315;52.104;6.304;2022-10-16T07:49:12;13.70;98.40
16412;DHT22;8315;52.104;6.304;2022-10-16T07:51:39;13.70;98.40
16412;DHT22;8315;52.104;6.304;2022-10-16T07:54:07;13.80;98.40
16412;DHT22;8315;52.104;6.304;2022-10-16T07:56:34;13.90;98.40
16412;DHT22;8315;52.104;6.304;2022-10-16T07:59:01;13.90;98.40
16412;DHT22;8315;52.104;6.304;2022-10-16T08:01:29;14.00;98.40
16412;DHT22;8315;52.104;6.304;2022-10-16T08:03:56;14.10;98.40
16412;DHT22;8315;52.104;6.304;2022-10-16T08:06:23;14.10;98.40
16412;DHT22;8315;52.104;6.304;2022-10-16T08:08:50;14.10;98.40
16412;DHT22;8315;52.104;6.304;2022-10-16T08:11:17;14.10;98.40
16412;DHT22;8315;52.104;6.304;2022-10-16T08:13:44;14.20;98.40
16412;DHT22;8315;52.104;6.304;2022-10-16T08:16:10;14.20;98.40
16412;DHT22;8315;52.104;6.304;2022-10-16T08:18:39;14.20;98.40
16412;DHT22;8315;52.104;6.304;2022-10-16T08:21:07;14.20;98.40
16412;DHT22;8315;52.104;6.304;2022-10-16T08:23:35;14.30;98.40
16412;DHT22;8315;52.104;6.304;2022-10-16T08:26:03;14.30;98.40
16412;DHT22;8315;52.104;6.304;2022-10-16T08:28:31;14.40;98.40
16412;DHT22;8315;52.104;6.304;2022-10-16T08:31:04;14.40;98.40
16412;DHT22;8315;52.104;6.304;2022-10-16T08:33:32;14.50;98.40
16412;DHT22;8315;52.104;6.304;2022-10-16T08:36:01;14.50;98.40
16412;DHT22;8315;52.104;6.304;2022-10-16T08:38:28;14.60;98.40
16412;DHT22;8315;52.104;6.304;2022-10-16T08:40:56;14.80;98.40
16412;DHT22;8315;52.104;6.304;2022-10-16T08:43:31;14.80;98.40
16412;DHT22;8315;52.104;6.304;2022-10-16T08:46:16;14.70;98.40
16412;DHT22;8315;52.104;6.304;2022-10-16T08:48:50;15.00;98.40
16412;DHT22;8315;52.104;6.304;2022-10-16T08:51:20;15.10;98.40
16412;DHT22;8315;52.104;6.304;2022-10-16T08:53:49;15.00;98.40
16412;DHT22;8315;52.104;6.304;2022-10-16T08:56:18;15.00;98.40
16412;DHT22;8315;52.104;6.304;2022-10-16T08:58:45;15.10;98.40
16412;DHT22;8315;52.104;6.304;2022-10-16T09:01:13;15.30;98.40
16412;DHT22;8315;52.104;6.304;2022-10-16T09:06:47;15.40;98.40
16412;DHT22;8315;52.104;6.304;2022-10-16T09:09:27;15.40;98.40
16412;DHT22;8315;52.104;6.304;2022-10-16T09:12:04;15.30;98.40
16412;DHT22;8315;52.104;6.304;2022-10-16T09:14:40;15.20;98.40
16412;DHT22;8315;52.104;6.304;2022-10-16T09:17:20;15.30;98.40
16412;DHT22;8315;52.104;6.304;2022-10-16T09:19:54;15.30;98.40
16412;DHT22;8315;52.104;6.304;2022-10-16T09:22:25;15.30;98.40
16412;DHT22;8315;52.104;6.304;2022-10-16T09:24:54;15.30;98.40
16412;DHT22;8315;52.104;6.304;2022-10-16T09:27:21;15.30;98.40
16412;DHT22;8315;52.104;6.304;2022-10-16T09:29:48;15.30;98.40
16412;DHT22;8315;52.104;6.304;2022-10-16T09:32:17;15.30;98.40
16412;DHT22;8315;52.104;6.304;2022-10-16T09:34:45;15.30;98.40
16412;DHT22;8315;52.104;6.304;2022-10-16T09:37:17;15.40;98.40
16412;DHT22;8315;52.104;6.304;2022-10-16T09:39:46;15.40;98.40
16412;DHT22;8315;52.104;6.304;2022-10-16T09:42:15;15.50;98.40
16412;DHT22;8315;52.104;6.304;2022-10-16T09:44:46;15.60;98.40
16412;DHT22;8315;52.104;6.304;2022-10-16T09:47:15;15.60;98.40
16412;DHT22;8315;52.104;6.304;2022-10-16T09:49:50;15.60;98.40
16412;DHT22;8315;52.104;6.304;2022-10-16T09:52:18;15.70;98.40
16412;DHT22;8315;52.104;6.304;2022-10-16T09:54:50;15.70;98.40
16412;DHT22;8315;52.104;6.304;2022-10-16T09:57:18;15.70;98.40
16412;DHT22;8315;52.104;6.304;2022-10-16T09:59:45;15.70;98.40
16412;DHT22;8315;52.104;6.304;2022-10-16T10:02:13;15.70;98.40
16412;DHT22;8315;52.104;6.304;2022-10-16T10:04:41;15.80;98.40
16412;DHT22;8315;52.104;6.304;2022-10-16T10:07:18;15.90;98.40
16412;DHT22;8315;52.104;6.304;2022-10-16T10:09:47;15.90;98.40
16412;DHT22;8315;52.104;6.304;2022-10-16T10:12:18;15.90;98.40
16412;DHT22;8315;52.104;6.304;2022-10-16T10:14:46;15.90;98.40
16412;DHT22;8315;52.104;6.304;2022-10-16T10:17:15;15.90;98.40
16412;DHT22;8315;52.104;6.304;2022-10-16T10:19:46;16.00;98.40
16412;DHT22;8315;52.104;6.304;2022-10-16T10:22:16;16.00;98.40
16412;DHT22;8315;52.104;6.304;2022-10-16T10:24:44;16.00;98.40
16412;DHT22;8315;52.104;6.304;2022-10-16T10:27:12;16.10;98.40
16412;DHT22;8315;52.104;6.304;2022-10-16T10:29:47;16.10;98.40
16412;DHT22;8315;52.104;6.304;2022-10-16T10:32:20;16.10;98.40
16412;DHT22;8315;52.104;6.304;2022-10-16T10:34:58;16.20;98.40
16412;DHT22;8315;52.104;6.304;2022-10-16T10:37:34;16.30;98.40
16412;DHT22;8315;52.104;6.304;2022-10-16T10:40:08;16.30;98.40
16412;DHT22;8315;52.104;6.304;2022-10-16T10:42:41;16.40;98.40
16412;DHT22;8315;52.104;6.304;2022-10-16T10:45:17;16.40;98.40
16412;DHT22;8315;52.104;6.304;2022-10-16T10:47:48;16.40;98.40
16412;DHT22;8315;52.104;6.304;2022-10-16T10:50:21;16.50;98.40
16412;DHT22;8315;52.104;6.304;2022-10-16T10:52:53;16.40;98.40
16412;DHT22;8315;52.104;6.304;2022-10-16T10:55:26;16.30;98.40
16412;DHT22;8315;52.104;6.304;2022-10-16T10:58:05;16.40;98.40
16412;DHT22;8315;52.104;6.304;2022-10-16T11:00:49;16.50;98.40
16412;DHT22;8315;52.104;6.304;2022-10-16T11:03:23;16.60;98.40
16412;DHT22;8315;52.104;6.304;2022-10-16T11:05:58;16.60;98.40
16412;DHT22;8315;52.104;6.304;2022-10-16T11:08:27;16.70;98.40
16412;DHT22;8315;52.104;6.304;2022-10-16T11:10:57;16.80;98.40
16412;DHT22;8315;52.104;6.304;2022-10-16T11:13:28;16.80;98.40
16412;DHT22;8315;52.104;6.304;2022-10-16T11:16:00;16.80;98.40
16412;DHT22;8315;52.104;6.304;2022-10-16T11:18:31;16.90;98.40
16412;DHT22;8315;52.104;6.304;2022-10-16T11:21:02;16.90;98.40
16412;DHT22;8315;52.104;6.304;2022-10-16T11:23:33;16.80;98.40
16412;DHT22;8315;52.104;6.304;2022-10-16T11:26:06;16.70;98.40
16412;DHT22;8315;52.104;6.304;2022-10-16T11:28:39;16.70;98.40
16412;DHT22;8315;52.104;6.304;2022-10-16T11:31:11;16.80;98.40
16412;DHT22;8315;52.104;6.304;2022-10-16T11:33:42;16.90;98.40
16412;DHT22;8315;52.104;6.304;2022-10-16T11:36:11;17.00;98.40
16412;DHT22;8315;52.104;6.304;2022-10-16T11:38:42;17.10;98.40
16412;DHT22;8315;52.104;6.304;2022-10-16T11:41:13;17.10;98.40
16412;DHT22;8315;52.104;6.304;2022-10-16T11:43:46;17.10;98.40
16412;DHT22;8315;52.104;6.304;2022-10-16T11:46:19;17.10;98.40
16412;DHT22;8315;52.104;6.304;2022-10-16T11:48:48;17.20;98.40
16412;DHT22;8315;52.104;6.304;2022-10-16T11:51:19;17.20;98.40
16412;DHT22;8315;52.104;6.304;2022-10-16T11:53:50;17.30;98.40
16412;DHT22;8315;52.104;6.304;2022-10-16T11:56:21;17.40;98.40
16412;DHT22;8315;52.104;6.304;2022-10-16T11:58:53;17.40;98.40
16412;DHT22;8315;52.104;6.304;2022-10-16T12:01:24;17.50;98.40
16412;DHT22;8315;52.104;6.304;2022-10-16T12:03:59;17.60;98.40
16412;DHT22;8315;52.104;6.304;2022-10-16T12:06:31;17.60;98.40
16412;DHT22;8315;52.104;6.304;2022-10-16T12:09:01;17.50;98.40
16412;DHT22;8315;52.104;6.304;2022-10-16T12:11:33;17.60;98.40
16412;DHT22;8315;52.104;6.304;2022-10-16T12:14:03;17.70;98.40
16412;DHT22;8315;52.104;6.304;2022-10-16T12:16:33;17.80;98.40
16412;DHT22;8315;52.104;6.304;2022-10-16T12:19:09;17.90;98.40
16412;DHT22;8315;52.104;6.304;2022-10-16T12:21:37;18.00;98.40
16412;DHT22;8315;52.104;6.304;2022-10-16T12:24:05;18.00;98.40
16412;DHT22;8315;52.104;6.304;2022-10-16T12:26:32;18.10;98.40
16412;DHT22;8315;52.104;6.304;2022-10-16T12:29:10;18.10;98.40
16412;DHT22;8315;52.104;6.304;2022-10-16T12:31:43;18.20;98.40
16412;DHT22;8315;52.104;6.304;2022-10-16T12:34:14;18.40;98.40
16412;DHT22;8315;52.104;6.304;2022-10-16T12:36:48;18.40;98.40
16412;DHT22;8315;52.104;6.304;2022-10-16T12:39:19;18.40;98.40
16412;DHT22;8315;52.104;6.304;2022-10-16T12:41:47;18.50;98.40
16412;DHT22;8315;52.104;6.304;2022-10-16T12:44:21;18.70;98.40
16412;DHT22;8315;52.104;6.304;2022-10-16T12:46:51;18.80;98.40
16412;DHT22;8315;52.104;6.304;2022-10-16T12:49:20;18.80;98.40
16412;DHT22;8315;52.104;6.304;2022-10-16T12:51:49;18.90;98.00
16412;DHT22;8315;52.104;6.304;2022-10-16T12:54:17;18.70;97.10
16412;DHT22;8315;52.104;6.304;2022-10-16T12:56:48;18.80;98.40
16412;DHT22;8315;52.104;6.304;2022-10-16T12:59:22;18.70;98.40
16412;DHT22;8315;52.104;6.304;2022-10-16T13:02:00;18.70;98.40
16412;DHT22;8315;52.104;6.304;2022-10-16T13:07:38;18.80;97.30
16412;DHT22;8315;52.104;6.304;2022-10-16T13:10:15;18.90;97.10
16412;DHT22;8315;52.104;6.304;2022-10-16T13:12:53;19.00;96.40
16412;DHT22;8315;52.104;6.304;2022-10-16T13:15:29;19.10;98.30
16412;DHT22;8315;52.104;6.304;2022-10-16T13:18:09;19.20;98.00
16412;DHT22;8315;52.104;6.304;2022-10-16T13:20:44;19.20;97.20
16412;DHT22;8315;52.104;6.304;2022-10-16T13:23:22;19.00;97.70
16412;DHT22;8315;52.104;6.304;2022-10-16T13:25:56;19.00;97.50
16412;DHT22;8315;52.104;6.304;2022-10-16T13:28:32;19.00;97.10
16412;DHT22;8315;52.104;6.304;2022-10-16T13:31:00;19.10;97.50
16412;DHT22;8315;52.104;6.304;2022-10-16T13:33:30;19.30;96.90
16412;DHT22;8315;52.104;6.304;2022-10-16T13:35:58;19.30;96.10
16412;DHT22;8315;52.104;6.304;2022-10-16T13:38:26;19.20;94.50
16412;DHT22;8315;52.104;6.304;2022-10-16T13:40:54;19.10;95.40
16412;DHT22;8315;52.104;6.304;2022-10-16T13:43:23;19.30;95.40
16412;DHT22;8315;52.104;6.304;2022-10-16T13:45:53;19.30;96.40
16412;DHT22;8315;52.104;6.304;2022-10-16T13:48:21;19.20;96.00
16412;DHT22;8315;52.104;6.304;2022-10-16T13:50:59;19.20;95.60
16412;DHT22;8315;52.104;6.304;2022-10-16T13:53:26;19.30;95.60
16412;DHT22;8315;52.104;6.304;2022-10-16T13:55:53;19.40;96.00
16412;DHT22;8315;52.104;6.304;2022-10-16T13:58:20;19.40;95.70
16412;DHT22;8315;52.104;6.304;2022-10-16T14:00:53;19.40;96.40
16412;DHT22;8315;52.104;6.304;2022-10-16T14:03:25;19.50;95.50
16412;DHT22;8315;52.104;6.304;2022-10-16T14:05:53;19.10;96.10
16412;DHT22;8315;52.104;6.304;2022-10-16T14:08:22;19.30;96.90
16412;DHT22;8315;52.104;6.304;2022-10-16T14:10:50;19.30;97.10
16412;DHT22;8315;52.104;6.304;2022-10-16T14:13:19;19.40;96.10
16412;DHT22;8315;52.104;6.304;2022-10-16T14:15:47;19.60;96.50
16412;DHT22;8315;52.104;6.304;2022-10-16T14:18:17;19.80;96.90
16412;DHT22;8315;52.104;6.304;2022-10-16T14:20:46;19.90;97.00
16412;DHT22;8315;52.104;6.304;2022-10-16T14:23:19;20.10;97.90
16412;DHT22;8315;52.104;6.304;2022-10-16T14:25:49;20.20;95.50
16412;DHT22;8315;52.104;6.304;2022-10-16T14:28:16;20.30;95.60
16412;DHT22;8315;52.104;6.304;2022-10-16T14:30:51;20.20;94.90
16412;DHT22;8315;52.104;6.304;2022-10-16T14:33:20;20.00;95.30
16412;DHT22;8315;52.104;6.304;2022-10-16T14:35:58;19.90;94.20
16412;DHT22;8315;52.104;6.304;2022-10-16T14:38:27;20.00;95.20
16412;DHT22;8315;52.104;6.304;2022-10-16T14:40:57;20.00;92.40
16412;DHT22;8315;52.104;6.304;2022-10-16T14:43:26;19.90;94.60
16412;DHT22;8315;52.104;6.304;2022-10-16T14:45:58;19.80;93.70
16412;DHT22;8315;52.104;6.304;2022-10-16T14:48:25;19.80;93.70
16412;DHT22;8315;52.104;6.304;2022-10-16T14:50:52;19.80;94.20
16412;DHT22;8315;52.104;6.304;2022-10-16T14:53:19;19.90;94.50
16412;DHT22;8315;52.104;6.304;2022-10-16T14:55:45;20.00;93.90
16412;DHT22;8315;52.104;6.304;2022-10-16T14:58:15;20.20;93.60
16412;DHT22;8315;52.104;6.304;2022-10-16T15:00:43;20.40;93.30
16412;DHT22;8315;52.104;6.304;2022-10-16T15:03:10;20.40;93.80
16412;DHT22;8315;52.104;6.304;2022-10-16T15:05:37;20.20;92.80
16412;DHT22;8315;52.104;6.304;2022-10-16T15:08:04;20.20;94.00
16412;DHT22;8315;52.104;6.304;2022-10-16T15:10:31;19.90;94.20
16412;DHT22;8315;52.104;6.304;2022-10-16T15:13:00;19.90;94.90
16412;DHT22;8315;52.104;6.304;2022-10-16T15:15:30;19.80;95.10
16412;DHT22;8315;52.104;6.304;2022-10-16T15:18:00;19.80;95.70
16412;DHT22;8315;52.104;6.304;2022-10-16T15:20:28;19.80;95.70
16412;DHT22;8315;52.104;6.304;2022-10-16T15:22:56;19.90;96.30
16412;DHT22;8315;52.104;6.304;2022-10-16T15:25:31;19.90;96.50
16412;DHT22;8315;52.104;6.304;2022-10-16T15:28:01;19.90;97.60
16412;DHT22;8315;52.104;6.304;2022-10-16T15:30:30;19.90;97.40
16412;DHT22;8315;52.104;6.304;2022-10-16T15:32:57;19.90;97.40
16412;DHT22;8315;52.104;6.304;2022-10-16T15:35:23;19.80;97.50
16412;DHT22;8315;52.104;6.304;2022-10-16T15:37:50;19.80;97.50
16412;DHT22;8315;52.104;6.304;2022-10-16T15:40:18;19.70;98.10
16412;DHT22;8315;52.104;6.304;2022-10-16T15:42:45;19.60;98.20
16412;DHT22;8315;52.104;6.304;2022-10-16T15:45:13;19.60;98.40
16412;DHT22;8315;52.104;6.304;2022-10-16T15:47:41;19.50;98.40
16412;DHT22;8315;52.104;6.304;2022-10-16T15:50:09;19.40;98.40
16412;DHT22;8315;52.104;6.304;2022-10-16T15:52:37;19.30;98.40
16412;DHT22;8315;52.104;6.304;2022-10-16T15:55:05;19.10;98.40
16412;DHT22;8315;52.104;6.304;2022-10-16T15:57:33;19.00;98.40
16412;DHT22;8315;52.104;6.304;2022-10-16T15:59:59;18.90;98.40
16412;DHT22;8315;52.104;6.304;2022-10-16T16:02:26;18.80;98.40
16412;DHT22;8315;52.104;6.304;2022-10-16T16:04:55;18.60;98.40
16412;DHT22;8315;52.104;6.304;2022-10-16T16:07:22;18.50;98.40